sensor_id;sensor_type;location;lat;lon;timestamp;temperature;humidity
1273;DHT22;629;48.632;10.230;2022-07-23T00:01:33;22.70;90.90
1273;DHT22;629;48.632;10.230;2022-07-23T00:04:02;22.70;91.80
1273;DHT22;629;48.632;10.230;2022-07-23T00:06:29;22.70;91.70
1273;DHT22;629;48.632;10.230;2022-07-23T00:08:56;22.70;93.50
1273;DHT22;629;48.632;10.230;2022-07-23T00:11:23;22.60;92.80
1273;DHT22;629;48.632;10.230;2022-07-23T00:13:50;22.60;92.60
1273;DHT22;629;48.632;10.230;2022-07-23T00:16:17;22.50;92.70
1273;DHT22;629;48.632;10.230;2022-07-23T00:18:44;22.50;91.80
1273;DHT22;629;48.632;10.230;2022-07-23T00:21:12;22.50;91.90
1273;DHT22;629;48.632;10.230;2022-07-23T00:27:31;22.50;94.10
1273;DHT22;629;48.632;10.230;2022-07-23T00:33:57;22.10;96.60
1273;DHT22;629;48.632;10.230;2022-07-23T00:36:42;21.90;97.60
1273;DHT22;629;48.632;10.230;2022-07-23T00:39:09;21.80;99.90
1273;DHT22;629;48.632;10.230;2022-07-23T00:41:36;21.60;99.90
1273;DHT22;629;48.632;10.230;2022-07-23T00:44:17;21.50;99.90
1273;DHT22;629;48.632;10.230;2022-07-23T00:46:49;21.40;99.90
1273;DHT22;629;48.632;10.230;2022-07-23T00:49:19;21.30;99.90
1273;DHT22;629;48.632;10.230;2022-07-23T00:51:48;21.20;99.90
1273;DHT22;629;48.632;10.230;2022-07-23T00:54:16;21.10;99.90
1273;DHT22;629;48.632;10.230;2022-07-23T00:56:44;21.00;99.90
1273;DHT22;629;48.632;10.230;2022-07-23T00:59:11;20.80;99.90
1273;DHT22;629;48.632;10.230;2022-07-23T01:01:38;20.60;99.90
1273;DHT22;629;48.632;10.230;2022-07-23T01:04:06;20.50;99.90
1273;DHT22;629;48.632;10.230;2022-07-23T01:06:35;20.40;99.90
1273;DHT22;629;48.632;10.230;2022-07-23T01:09:04;20.40;99.90
1273;DHT22;629;48.632;10.230;2022-07-23T01:11:33;20.30;99.90
1273;DHT22;629;48.632;10.230;2022-07-23T01:14:08;20.20;99.90
1273;DHT22;629;48.632;10.230;2022-07-23T01:16:35;20.20;99.90
1273;DHT22;629;48.632;10.230;2022-07-23T01:19:02;20.20;99.90
1273;DHT22;629;48.632;10.230;2022-07-23T01:21:33;20.20;99.90
1273;DHT22;629;48.632;10.230;2022-07-23T01:24:03;20.30;99.90
1273;DHT22;629;48.632;10.230;2022-07-23T01:26:30;20.10;99.90
1273;DHT22;629;48.632;10.230;2022-07-23T01:28:57;20.00;99.90
1273;DHT22;629;48.632;10.230;2022-07-23T01:31:24;20.00;99.90
1273;DHT22;629;48.632;10.230;2022-07-23T01:33:51;20.00;99.90
1273;DHT22;629;48.632;10.230;2022-07-23T01:36:18;20.10;99.90
1273;DHT22;629;48.632;10.230;2022-07-23T01:38:45;20.00;99.90
1273;DHT22;629;48.632;10.230;2022-07-23T01:41:14;19.90;99.90
1273;DHT22;629;48.632;10.230;2022-07-23T01:43:41;19.80;99.90
1273;DHT22;629;48.632;10.230;2022-07-23T01:46:08;19.70;99.90
1273;DHT22;629;48.632;10.230;2022-07-23T01:48:35;19.80;99.90
1273;DHT22;629;48.632;10.230;2022-07-23T01:51:02;19.80;99.90
1273;DHT22;629;48.632;10.230;2022-07-23T01:53:29;19.70;99.90
1273;DHT22;629;48.632;10.230;2022-07-23T01:55:57;19.70;99.90
1273;DHT22;629;48.632;10.230;2022-07-23T01:58:26;19.70;99.90
1273;DHT22;629;48.632;10.230;2022-07-23T02:00:53;19.70;99.90
1273;DHT22;629;48.632;10.230;2022-07-23T02:03:20;19.80;99.90
1273;DHT22;629;48.632;10.230;2022-07-23T02:05:48;19.80;99.90
1273;DHT22;629;48.632;10.230;2022-07-23T02:08:15;19.90;99.90
1273;DHT22;629;48.632;10.230;2022-07-23T02:10:42;19.90;99.90
1273;DHT22;629;48.632;10.230;2022-07-23T02:13:09;19.70;99.90
1273;DHT22;629;48.632;10.230;2022-07-23T02:15:38;19.70;99.90
1273;DHT22;629;48.632;10.230;2022-07-23T02:18:05;19.70;99.90
1273;DHT22;629;48.632;10.230;2022-07-23T02:20:33;19.60;99.90
1273;DHT22;629;48.632;10.230;2022-07-23T02:23:04;19.70;99.90
1273;DHT22;629;48.632;10.230;2022-07-23T02:25:31;19.70;99.90
1273;DHT22;629;48.632;10.230;2022-07-23T02:27:58;19.70;99.90
1273;DHT22;629;48.632;10.230;2022-07-23T02:30:25;19.80;99.90
1273;DHT22;629;48.632;10.230;2022-07-23T02:32:53;19.90;99.90
1273;DHT22;629;48.632;10.230;2022-07-23T02:35:21;19.90;99.90
1273;DHT22;629;48.632;10.230;2022-07-23T02:37:48;19.90;99.90
1273;DHT22;629;48.632;10.230;2022-07-23T02:40:15;19.90;99.90
1273;DHT22;629;48.632;10.230;2022-07-23T02:42:41;19.90;99.90
1273;DHT22;629;48.632;10.230;2022-07-23T02:45:09;19.90;99.90
1273;DHT22;629;48.632;10.230;2022-07-23T02:47:36;19.90;99.90
1273;DHT22;629;48.632;10.230;2022-07-23T02:50:06;19.90;99.90
1273;DHT22;629;48.632;10.230;2022-07-23T02:52:33;19.70;99.90
1273;DHT22;629;48.632;10.230;2022-07-23T02:55:00;19.60;99.90
1273;DHT22;629;48.632;10.230;2022-07-23T02:57:27;19.40;99.90
1273;DHT22;629;48.632;10.230;2022-07-23T02:59:54;19.40;99.90
1273;DHT22;629;48.632;10.230;2022-07-23T03:02:21;19.30;99.90
1273;DHT22;629;48.632;10.230;2022-07-23T03:04:49;19.30;99.90
1273;DHT22;629;48.632;10.230;2022-07-23T03:07:17;19.30;99.90
1273;DHT22;629;48.632;10.230;2022-07-23T03:09:44;19.20;99.90
1273;DHT22;629;48.632;10.230;2022-07-23T03:12:11;19.30;99.90
1273;DHT22;629;48.632;10.230;2022-07-23T03:14:38;19.30;99.90
1273;DHT22;629;48.632;10.230;2022-07-23T03:17:05;19.30;99.90
1273;DHT22;629;48.632;10.230;2022-07-23T03:19:32;19.20;99.90
1273;DHT22;629;48.632;10.230;2022-07-23T03:21:59;19.10;99.90
1273;DHT22;629;48.632;10.230;2022-07-23T03:24:28;19.10;99.90
1273;DHT22;629;48.632;10.230;2022-07-23T03:27:09;19.10;99.90
1273;DHT22;629;48.632;10.230;2022-07-23T03:29:36;19.10;99.90
1273;DHT22;629;48.632;10.230;2022-07-23T03:32:03;19.10;99.90
1273;DHT22;629;48.632;10.230;2022-07-23T03:34:30;19.10;99.90
1273;DHT22;629;48.632;10.230;2022-07-23T03:36:57;19.20;99.90
1273;DHT22;629;48.632;10.230;2022-07-23T03:39:24;19.20;99.90
1273;DHT22;629;48.632;10.230;2022-07-23T03:41:52;19.20;99.90
1273;DHT22;629;48.632;10.230;2022-07-23T03:44:19;19.20;99.90
1273;DHT22;629;48.632;10.230;2022-07-23T03:46:46;19.20;99.90
1273;DHT22;629;48.632;10.230;2022-07-23T03:49:13;19.20;99.90
1273;DHT22;629;48.632;10.230;2022-07-23T03:51:40;19.30;99.90
1273;DHT22;629;48.632;10.230;2022-07-23T03:54:07;19.20;99.90
1273;DHT22;629;48.632;10.230;2022-07-23T03:56:34;19.20;99.90
1273;DHT22;629;48.632;10.230;2022-07-23T03:59:02;19.10;99.90
1273;DHT22;629;48.632;10.230;2022-07-23T04:01:29;19.00;99.90
1273;DHT22;629;48.632;10.230;2022-07-23T04:03:56;19.00;99.90
1273;DHT22;629;48.632;10.230;2022-07-23T04:06:23;19.10;99.90
1273;DHT22;629;48.632;10.230;2022-07-23T04:08:50;19.10;99.90
1273;DHT22;629;48.632;10.230;2022-07-23T04:11:17;19.10;99.90
1273;DHT22;629;48.632;10.230;2022-07-23T04:17:38;19.00;99.90
1273;DHT22;629;48.632;10.230;2022-07-23T04:20:22;19.00;99.90
1273;DHT22;629;48.632;10.230;2022-07-23T04:22:50;19.10;99.90
1273;DHT22;629;48.632;10.230;2022-07-23T04:25:17;19.00;99.90
1273;DHT22;629;48.632;10.230;2022-07-23T04:27:44;19.00;99.90
1273;DHT22;629;48.632;10.230;2022-07-23T04:30:11;19.00;99.90
1273;DHT22;629;48.632;10.230;2022-07-23T04:32:39;18.90;99.90
1273;DHT22;629;48.632;10.230;2022-07-23T04:35:07;19.00;99.90
1273;DHT22;629;48.632;10.230;2022-07-23T04:37:34;19.00;99.90
1273;DHT22;629;48.632;10.230;2022-07-23T04:40:01;19.10;99.90
1273;DHT22;629;48.632;10.230;2022-07-23T04:42:28;19.20;99.90
1273;DHT22;629;48.632;10.230;2022-07-23T04:44:55;19.20;99.90
1273;DHT22;629;48.632;10.230;2022-07-23T04:47:22;19.30;99.90
1273;DHT22;629;48.632;10.230;2022-07-23T04:49:50;19.30;99.90
1273;DHT22;629;48.632;10.230;2022-07-23T04:52:17;19.40;99.90
1273;DHT22;629;48.632;10.230;2022-07-23T04:54:44;19.40;99.90
1273;DHT22;629;48.632;10.230;2022-07-23T04:57:11;19.40;99.90
1273;DHT22;629;48.632;10.230;2022-07-23T04:59:38;19.50;99.90
1273;DHT22;629;48.632;10.230;2022-07-23T05:02:05;19.60;99.90
1273;DHT22;629;48.632;10.230;2022-07-23T05:05:06;19.60;99.90
1273;DHT22;629;48.632;10.230;2022-07-23T05:08:29;19.60;99.90
1273;DHT22;629;48.632;10.230;2022-07-23T05:14:07;19.60;99.90
1273;DHT22;629;48.632;10.230;2022-07-23T05:16:37;19.70;99.90
1273;DHT22;629;48.632;10.230;2022-07-23T05:19:04;19.70;99.90
1273;DHT22;629;48.632;10.230;2022-07-23T05:21:33;19.80;99.90
1273;DHT22;629;48.632;10.230;2022-07-23T05:24:00;19.90;99.90
1273;DHT22;629;48.632;10.230;2022-07-23T05:26:27;19.90;99.90
1273;DHT22;629;48.632;10.230;2022-07-23T05:28:54;20.00;99.90
1273;DHT22;629;48.632;10.230;2022-07-23T05:31:21;20.10;99.90
1273;DHT22;629;48.632;10.230;2022-07-23T05:50:58;21.30;99.90
1273;DHT22;629;48.632;10.230;2022-07-23T05:56:01;21.60;99.90
1273;DHT22;629;48.632;10.230;2022-07-23T05:58:28;21.70;99.90
1273;DHT22;629;48.632;10.230;2022-07-23T06:00:55;21.80;99.90
1273;DHT22;629;48.632;10.230;2022-07-23T06:06:05;22.10;99.90
1273;DHT22;629;48.632;10.230;2022-07-23T06:08:32;22.30;99.90
1273;DHT22;629;48.632;10.230;2022-07-23T06:11:00;22.50;99.90
1273;DHT22;629;48.632;10.230;2022-07-23T06:29:01;22.70;99.90
1273;DHT22;629;48.632;10.230;2022-07-23T06:31:28;22.60;99.90
1273;DHT22;629;48.632;10.230;2022-07-23T06:36:30;22.50;99.90
1273;DHT22;629;48.632;10.230;2022-07-23T06:38:57;22.60;99.90
1273;DHT22;629;48.632;10.230;2022-07-23T06:41:24;22.80;99.90
1273;DHT22;629;48.632;10.230;2022-07-23T06:49:03;23.30;99.90
1273;DHT22;629;48.632;10.230;2022-07-23T06:51:30;23.60;99.90
1273;DHT22;629;48.632;10.230;2022-07-23T06:56:33;24.20;99.90
1273;DHT22;629;48.632;10.230;2022-07-23T06:59:00;24.50;99.90
1273;DHT22;629;48.632;10.230;2022-07-23T07:01:27;24.50;99.90
1273;DHT22;629;48.632;10.230;2022-07-23T07:03:54;24.70;99.90
1273;DHT22;629;48.632;10.230;2022-07-23T07:06:22;25.00;99.90
1273;DHT22;629;48.632;10.230;2022-07-23T07:08:49;25.20;99.90
1273;DHT22;629;48.632;10.230;2022-07-23T07:11:16;25.40;99.90
1273;DHT22;629;48.632;10.230;2022-07-23T07:13:43;25.70;99.90
1273;DHT22;629;48.632;10.230;2022-07-23T07:16:10;26.00;99.90
1273;DHT22;629;48.632;10.230;2022-07-23T07:18:37;26.20;99.90
1273;DHT22;629;48.632;10.230;2022-07-23T07:21:04;26.40;99.50
1273;DHT22;629;48.632;10.230;2022-07-23T07:26:08;26.80;95.70
1273;DHT22;629;48.632;10.230;2022-07-23T07:28:35;26.90;93.70
1273;DHT22;629;48.632;10.230;2022-07-23T07:31:02;27.00;91.90
1273;DHT22;629;48.632;10.230;2022-07-23T07:52:26;27.30;90.90
1273;DHT22;629;48.632;10.230;2022-07-23T07:54:53;27.50;88.00
1273;DHT22;629;48.632;10.230;2022-07-23T07:57:20;27.40;86.30
1273;DHT22;629;48.632;10.230;2022-07-23T07:59:48;27.50;85.60
1273;DHT22;629;48.632;10.230;2022-07-23T08:02:15;27.70;86.20
1273;DHT22;629;48.632;10.230;2022-07-23T08:04:42;27.70;84.50
1273;DHT22;629;48.632;10.230;2022-07-23T08:07:10;27.80;80.20
1273;DHT22;629;48.632;10.230;2022-07-23T08:09:38;28.00;81.00
1273;DHT22;629;48.632;10.230;2022-07-23T08:12:06;28.10;79.90
1273;DHT22;629;48.632;10.230;2022-07-23T08:14:33;28.20;78.90
1273;DHT22;629;48.632;10.230;2022-07-23T08:17:00;28.30;77.60
1273;DHT22;629;48.632;10.230;2022-07-23T08:19:27;28.00;75.30
1273;DHT22;629;48.632;10.230;2022-07-23T08:21:54;27.70;77.20
1273;DHT22;629;48.632;10.230;2022-07-23T08:24:21;27.60;76.40
1273;DHT22;629;48.632;10.230;2022-07-23T08:26:49;27.40;76.90
1273;DHT22;629;48.632;10.230;2022-07-23T08:29:16;27.40;78.90
1273;DHT22;629;48.632;10.230;2022-07-23T08:31:43;27.60;78.90
1273;DHT22;629;48.632;10.230;2022-07-23T08:34:11;28.00;76.90
1273;DHT22;629;48.632;10.230;2022-07-23T08:36:38;28.40;74.00
1273;DHT22;629;48.632;10.230;2022-07-23T08:39:05;28.80;74.20
1273;DHT22;629;48.632;10.230;2022-07-23T08:41:32;28.70;71.80
1273;DHT22;629;48.632;10.230;2022-07-23T08:44:02;28.80;71.60
1273;DHT22;629;48.632;10.230;2022-07-23T08:46:29;29.10;69.30
1273;DHT22;629;48.632;10.230;2022-07-23T08:48:56;29.20;67.80
1273;DHT22;629;48.632;10.230;2022-07-23T08:51:26;29.30;69.00
1273;DHT22;629;48.632;10.230;2022-07-23T08:53:56;29.60;67.50
1273;DHT22;629;48.632;10.230;2022-07-23T08:56:23;29.80;67.70
1273;DHT22;629;48.632;10.230;2022-07-23T08:58:51;29.80;66.70
1273;DHT22;629;48.632;10.230;2022-07-23T09:01:21;29.90;66.30
1273;DHT22;629;48.632;10.230;2022-07-23T09:03:48;29.90;64.90
1273;DHT22;629;48.632;10.230;2022-07-23T09:06:15;29.70;65.30
1273;DHT22;629;48.632;10.230;2022-07-23T09:08:43;29.40;67.20
1273;DHT22;629;48.632;10.230;2022-07-23T09:11:13;29.10;67.90
1273;DHT22;629;48.632;10.230;2022-07-23T09:13:45;28.70;68.50
1273;DHT22;629;48.632;10.230;2022-07-23T09:16:13;28.60;69.80
1273;DHT22;629;48.632;10.230;2022-07-23T09:18:44;28.20;71.00
1273;DHT22;629;48.632;10.230;2022-07-23T09:21:18;28.00;71.80
1273;DHT22;629;48.632;10.230;2022-07-23T09:23:47;28.00;69.20
1273;DHT22;629;48.632;10.230;2022-07-23T09:26:22;28.30;67.00
1273;DHT22;629;48.632;10.230;2022-07-23T09:28:51;28.50;71.30
1273;DHT22;629;48.632;10.230;2022-07-23T09:31:20;28.50;69.50
1273;DHT22;629;48.632;10.230;2022-07-23T09:33:48;28.60;70.10
1273;DHT22;629;48.632;10.230;2022-07-23T09:36:16;28.90;73.80
1273;DHT22;629;48.632;10.230;2022-07-23T09:38:53;29.40;68.90
1273;DHT22;629;48.632;10.230;2022-07-23T09:41:20;29.90;67.00
1273;DHT22;629;48.632;10.230;2022-07-23T09:43:55;30.10;66.00
1273;DHT22;629;48.632;10.230;2022-07-23T09:46:24;29.70;66.00
1273;DHT22;629;48.632;10.230;2022-07-23T09:48:54;29.50;65.40
1273;DHT22;629;48.632;10.230;2022-07-23T09:51:22;29.10;66.50
1273;DHT22;629;48.632;10.230;2022-07-23T09:53:53;28.70;69.60
1273;DHT22;629;48.632;10.230;2022-07-23T09:56:20;28.40;70.80
1273;DHT22;629;48.632;10.230;2022-07-23T09:58:50;28.40;71.10
1273;DHT22;629;48.632;10.230;2022-07-23T10:01:18;28.10;70.50
1273;DHT22;629;48.632;10.230;2022-07-23T10:03:47;27.90;73.10
1273;DHT22;629;48.632;10.230;2022-07-23T10:06:15;27.50;75.00
1273;DHT22;629;48.632;10.230;2022-07-23T10:08:44;27.30;75.70
1273;DHT22;629;48.632;10.230;2022-07-23T10:11:14;27.20;78.30
1273;DHT22;629;48.632;10.230;2022-07-23T10:13:42;26.90;77.90
1273;DHT22;629;48.632;10.230;2022-07-23T10:16:20;26.70;79.90
1273;DHT22;629;48.632;10.230;2022-07-23T10:18:48;26.80;80.50
1273;DHT22;629;48.632;10.230;2022-07-23T10:21:23;26.80;80.80
1273;DHT22;629;48.632;10.230;2022-07-23T10:33:17;26.40;82.70
1273;DHT22;629;48.632;10.230;2022-07-23T10:36:29;26.40;83.90
1273;DHT22;629;48.632;10.230;2022-07-23T10:39:20;26.50;83.20
1273;DHT22;629;48.632;10.230;2022-07-23T10:42:44;26.70;83.70
1273;DHT22;629;48.632;10.230;2022-07-23T10:45:43;26.90;82.60
1273;DHT22;629;48.632;10.230;2022-07-23T10:59:08;27.20;81.10
1273;DHT22;629;48.632;10.230;2022-07-23T11:12:59;27.60;79.40
1273;DHT22;629;48.632;10.230;2022-07-23T12:38:47;28.70;60.40
1273;DHT22;629;48.632;10.230;2022-07-23T12:41:15;28.70;61.20
1273;DHT22;629;48.632;10.230;2022-07-23T12:56:06;28.20;59.90
1273;DHT22;629;48.632;10.230;2022-07-23T12:58:41;28.10;61.00
1273;DHT22;629;48.632;10.230;2022-07-23T13:01:09;28.10;62.50
1273;DHT22;629;48.632;10.230;2022-07-23T13:04:22;28.10;61.00
1273;DHT22;629;48.632;10.230;2022-07-23T13:07:36;28.30;61.00
1273;DHT22;629;48.632;10.230;2022-07-23T13:11:47;28.70;60.40
1273;DHT22;629;48.632;10.230;2022-07-23T13:22:57;28.90;57.90
1273;DHT22;629;48.632;10.230;2022-07-23T13:24:48;28.70;70.00
1273;DHT22;629;48.632;10.230;2022-07-23T13:27:15;28.50;72.00
1273;DHT22;629;48.632;10.230;2022-07-23T13:29:42;28.30;71.10
1273;DHT22;629;48.632;10.230;2022-07-23T13:32:09;28.20;68.30
1273;DHT22;629;48.632;10.230;2022-07-23T13:34:36;28.20;71.70
1273;DHT22;629;48.632;10.230;2022-07-23T13:37:04;28.00;73.40
1273;DHT22;629;48.632;10.230;2022-07-23T13:39:31;28.00;67.80
1273;DHT22;629;48.632;10.230;2022-07-23T13:41:58;28.50;67.40
1273;DHT22;629;48.632;10.230;2022-07-23T13:47:23;29.70;63.30
1273;DHT22;629;48.632;10.230;2022-07-23T13:53:33;31.10;54.50
1273;DHT22;629;48.632;10.230;2022-07-23T13:56:00;31.60;53.90
1273;DHT22;629;48.632;10.230;2022-07-23T13:58:27;31.70;52.90
1273;DHT22;629;48.632;10.230;2022-07-23T14:00:54;32.00;52.60
1273;DHT22;629;48.632;10.230;2022-07-23T14:03:22;32.40;51.90
1273;DHT22;629;48.632;10.230;2022-07-23T14:05:49;32.80;50.90
1273;DHT22;629;48.632;10.230;2022-07-23T14:08:16;32.50;50.90
1273;DHT22;629;48.632;10.230;2022-07-23T14:10:45;32.30;50.90
1273;DHT22;629;48.632;10.230;2022-07-23T14:13:12;32.20;51.20
1273;DHT22;629;48.632;10.230;2022-07-23T15:19:49;31.40;48.90
1273;DHT22;629;48.632;10.230;2022-07-23T15:22:16;31.60;48.70
1273;DHT22;629;48.632;10.230;2022-07-23T15:24:44;31.50;48.60
1273;DHT22;629;48.632;10.230;2022-07-23T15:27:11;31.50;48.30
1273;DHT22;629;48.632;10.230;2022-07-23T15:29:38;31.50;48.40
1273;DHT22;629;48.632;10.230;2022-07-23T15:32:05;31.40;49.00
